sensor_id;sensor_type;location;lat;lon;timestamp;temperature;humidity
33739;DHT22;20063;51.730;11.110;2023-02-02T00:01:32;4.90;99.90
33739;DHT22;20063;51.730;11.110;2023-02-02T00:03:58;4.90;99.90
33739;DHT22;20063;51.730;11.110;2023-02-02T00:06:25;4.90;99.90
33739;DHT22;20063;51.730;11.110;2023-02-02T00:08:51;4.90;99.90
33739;DHT22;20063;51.730;11.110;2023-02-02T00:11:18;4.80;99.90
33739;DHT22;20063;51.730;11.110;2023-02-02T00:13:44;4.80;99.90
33739;DHT22;20063;51.730;11.110;2023-02-02T00:19:00;4.80;99.90
33739;DHT22;20063;51.730;11.110;2023-02-02T00:21:27;4.80;99.90
33739;DHT22;20063;51.730;11.110;2023-02-02T00:23:53;4.80;99.90
33739;DHT22;20063;51.730;11.110;2023-02-02T00:26:19;4.80;99.90
33739;DHT22;20063;51.730;11.110;2023-02-02T00:28:45;4.80;99.90
33739;DHT22;20063;51.730;11.110;2023-02-02T00:31:11;4.80;99.90
33739;DHT22;20063;51.730;11.110;2023-02-02T00:33:37;4.80;99.90
33739;DHT22;20063;51.730;11.110;2023-02-02T00:36:03;4.80;99.90
33739;DHT22;20063;51.730;11.110;2023-02-02T00:38:29;4.80;99.90
33739;DHT22;20063;51.730;11.110;2023-02-02T00:40:55;4.80;99.90
33739;DHT22;20063;51.730;11.110;2023-02-02T00:43:20;4.80;99.90
33739;DHT22;20063;51.730;11.110;2023-02-02T00:45:47;4.80;99.90
33739;DHT22;20063;51.730;11.110;2023-02-02T00:48:13;4.80;99.90
33739;DHT22;20063;51.730;11.110;2023-02-02T00:50:38;4.90;99.90
33739;DHT22;20063;51.730;11.110;2023-02-02T00:53:04;4.90;99.90
33739;DHT22;20063;51.730;11.110;2023-02-02T00:55:30;4.90;99.90
33739;DHT22;20063;51.730;11.110;2023-02-02T00:57:56;4.90;99.90
33739;DHT22;20063;51.730;11.110;2023-02-02T01:00:24;4.90;99.90
33739;DHT22;20063;51.730;11.110;2023-02-02T01:02:51;4.90;99.90
33739;DHT22;20063;51.730;11.110;2023-02-02T01:05:19;4.90;99.90
33739;DHT22;20063;51.730;11.110;2023-02-02T01:07:45;4.90;99.90
33739;DHT22;20063;51.730;11.110;2023-02-02T01:12:41;4.90;99.90
33739;DHT22;20063;51.730;11.110;2023-02-02T01:15:07;4.80;99.90
33739;DHT22;20063;51.730;11.110;2023-02-02T01:17:33;4.90;99.90
33739;DHT22;20063;51.730;11.110;2023-02-02T01:19:59;4.90;99.90
33739;DHT22;20063;51.730;11.110;2023-02-02T01:22:25;4.80;99.90
33739;DHT22;20063;51.730;11.110;2023-02-02T01:24:50;4.80;99.90
33739;DHT22;20063;51.730;11.110;2023-02-02T01:27:16;4.80;99.90
33739;DHT22;20063;51.730;11.110;2023-02-02T01:29:42;4.80;99.90
33739;DHT22;20063;51.730;11.110;2023-02-02T01:32:08;4.80;99.90
33739;DHT22;20063;51.730;11.110;2023-02-02T01:34:35;4.80;99.90
33739;DHT22;20063;51.730;11.110;2023-02-02T01:37:04;4.80;99.90
33739;DHT22;20063;51.730;11.110;2023-02-02T01:39:30;4.80;99.90
33739;DHT22;20063;51.730;11.110;2023-02-02T01:41:56;4.80;99.90
33739;DHT22;20063;51.730;11.110;2023-02-02T01:45:40;4.80;99.90
33739;DHT22;20063;51.730;11.110;2023-02-02T01:47:40;4.80;99.90
33739;DHT22;20063;51.730;11.110;2023-02-02T01:50:07;4.80;99.90
33739;DHT22;20063;51.730;11.110;2023-02-02T01:52:35;4.80;99.90
33739;DHT22;20063;51.730;11.110;2023-02-02T01:55:05;4.80;99.90
33739;DHT22;20063;51.730;11.110;2023-02-02T01:58:03;4.90;99.90
33739;DHT22;20063;51.730;11.110;2023-02-02T02:00:30;4.90;99.90
33739;DHT22;20063;51.730;11.110;2023-02-02T02:03:01;4.90;99.90
33739;DHT22;20063;51.730;11.110;2023-02-02T02:05:33;4.90;99.90
33739;DHT22;20063;51.730;11.110;2023-02-02T02:08:18;4.90;99.90
33739;DHT22;20063;51.730;11.110;2023-02-02T02:10:44;4.90;99.90
33739;DHT22;20063;51.730;11.110;2023-02-02T02:13:11;4.90;99.90
33739;DHT22;20063;51.730;11.110;2023-02-02T02:16:00;4.90;99.90
33739;DHT22;20063;51.730;11.110;2023-02-02T02:18:57;4.90;99.90
33739;DHT22;20063;51.730;11.110;2023-02-02T02:36:31;4.80;99.90
33739;DHT22;20063;51.730;11.110;2023-02-02T02:39:10;4.80;99.90
33739;DHT22;20063;51.730;11.110;2023-02-02T02:41:43;4.90;99.90
33739;DHT22;20063;51.730;11.110;2023-02-02T02:44:13;4.80;99.90
33739;DHT22;20063;51.730;11.110;2023-02-02T02:46:40;4.90;99.90
33739;DHT22;20063;51.730;11.110;2023-02-02T02:49:08;4.80;99.90
33739;DHT22;20063;51.730;11.110;2023-02-02T02:51:45;4.80;99.90
33739;DHT22;20063;51.730;11.110;2023-02-02T02:54:26;4.80;99.90
33739;DHT22;20063;51.730;11.110;2023-02-02T02:59:37;4.80;99.90
33739;DHT22;20063;51.730;11.110;2023-02-02T03:08:19;4.80;99.90
33739;DHT22;20063;51.730;11.110;2023-02-02T03:10:45;4.90;99.90
33739;DHT22;20063;51.730;11.110;2023-02-02T03:13:13;4.90;99.90
33739;DHT22;20063;51.730;11.110;2023-02-02T03:15:40;4.90;99.90
33739;DHT22;20063;51.730;11.110;2023-02-02T03:18:07;5.00;99.90
33739;DHT22;20063;51.730;11.110;2023-02-02T03:20:33;5.00;99.90
33739;DHT22;20063;51.730;11.110;2023-02-02T03:22:59;5.00;99.90
33739;DHT22;20063;51.730;11.110;2023-02-02T03:25:25;5.00;99.90
33739;DHT22;20063;51.730;11.110;2023-02-02T03:27:50;5.00;99.90
33739;DHT22;20063;51.730;11.110;2023-02-02T03:30:17;5.10;99.90
33739;DHT22;20063;51.730;11.110;2023-02-02T03:32:43;5.10;99.90
33739;DHT22;20063;51.730;11.110;2023-02-02T03:35:09;5.10;99.90
33739;DHT22;20063;51.730;11.110;2023-02-02T03:37:35;5.10;99.90
33739;DHT22;20063;51.730;11.110;2023-02-02T03:40:00;5.00;99.90
33739;DHT22;20063;51.730;11.110;2023-02-02T03:42:26;5.00;99.90
33739;DHT22;20063;51.730;11.110;2023-02-02T03:44:52;5.10;99.90
33739;DHT22;20063;51.730;11.110;2023-02-02T03:47:18;5.10;99.90
33739;DHT22;20063;51.730;11.110;2023-02-02T03:49:43;5.10;99.90
33739;DHT22;20063;51.730;11.110;2023-02-02T03:52:09;5.10;99.90
33739;DHT22;20063;51.730;11.110;2023-02-02T03:54:34;5.10;99.90
33739;DHT22;20063;51.730;11.110;2023-02-02T03:57:01;5.10;99.90
33739;DHT22;20063;51.730;11.110;2023-02-02T03:59:26;5.10;99.90
33739;DHT22;20063;51.730;11.110;2023-02-02T04:01:52;5.10;99.90
33739;DHT22;20063;51.730;11.110;2023-02-02T04:04:17;5.10;99.90
33739;DHT22;20063;51.730;11.110;2023-02-02T04:06:43;5.10;99.90
33739;DHT22;20063;51.730;11.110;2023-02-02T04:09:09;5.00;99.90
33739;DHT22;20063;51.730;11.110;2023-02-02T04:11:34;5.00;99.90
33739;DHT22;20063;51.730;11.110;2023-02-02T04:14:00;5.00;99.90
33739;DHT22;20063;51.730;11.110;2023-02-02T04:16:26;5.00;99.90
33739;DHT22;20063;51.730;11.110;2023-02-02T04:18:51;5.10;99.90
33739;DHT22;20063;51.730;11.110;2023-02-02T04:21:17;5.10;99.90
33739;DHT22;20063;51.730;11.110;2023-02-02T04:23:42;5.00;99.90
33739;DHT22;20063;51.730;11.110;2023-02-02T04:26:08;5.00;99.90
33739;DHT22;20063;51.730;11.110;2023-02-02T04:28:34;5.00;99.90
33739;DHT22;20063;51.730;11.110;2023-02-02T04:30:59;5.00;99.90
33739;DHT22;20063;51.730;11.110;2023-02-02T04:33:26;5.00;99.90
33739;DHT22;20063;51.730;11.110;2023-02-02T04:35:56;5.00;99.90
33739;DHT22;20063;51.730;11.110;2023-02-02T04:38:24;5.00;99.90
33739;DHT22;20063;51.730;11.110;2023-02-02T04:40:50;5.00;99.90
33739;DHT22;20063;51.730;11.110;2023-02-02T04:43:16;5.00;99.90
33739;DHT22;20063;51.730;11.110;2023-02-02T04:45:41;5.00;99.90
33739;DHT22;20063;51.730;11.110;2023-02-02T04:48:07;5.10;99.90
33739;DHT22;20063;51.730;11.110;2023-02-02T04:50:32;5.00;99.90
33739;DHT22;20063;51.730;11.110;2023-02-02T04:53:02;5.00;99.90
33739;DHT22;20063;51.730;11.110;2023-02-02T04:55:35;5.00;99.90
33739;DHT22;20063;51.730;11.110;2023-02-02T04:58:04;5.00;99.90
33739;DHT22;20063;51.730;11.110;2023-02-02T05:00:29;5.00;99.90
33739;DHT22;20063;51.730;11.110;2023-02-02T05:02:55;5.00;99.90
33739;DHT22;20063;51.730;11.110;2023-02-02T05:05:20;5.00;99.90
33739;DHT22;20063;51.730;11.110;2023-02-02T05:07:49;5.00;99.90
33739;DHT22;20063;51.730;11.110;2023-02-02T05:10:15;5.00;99.90
33739;DHT22;20063;51.730;11.110;2023-02-02T05:12:40;5.00;99.90
33739;DHT22;20063;51.730;11.110;2023-02-02T05:15:06;5.00;99.90
33739;DHT22;20063;51.730;11.110;2023-02-02T05:17:32;4.90;99.90
33739;DHT22;20063;51.730;11.110;2023-02-02T05:19:58;4.90;99.90
33739;DHT22;20063;51.730;11.110;2023-02-02T05:22:23;4.90;99.90
33739;DHT22;20063;51.730;11.110;2023-02-02T05:24:49;4.90;99.90
33739;DHT22;20063;51.730;11.110;2023-02-02T05:27:15;4.90;99.90
33739;DHT22;20063;51.730;11.110;2023-02-02T05:29:40;4.90;99.90
33739;DHT22;20063;51.730;11.110;2023-02-02T05:32:06;4.90;99.90
33739;DHT22;20063;51.730;11.110;2023-02-02T05:34:31;4.90;99.90
33739;DHT22;20063;51.730;11.110;2023-02-02T05:36:57;4.90;99.90
33739;DHT22;20063;51.730;11.110;2023-02-02T05:39:22;5.00;99.90
33739;DHT22;20063;51.730;11.110;2023-02-02T05:41:48;5.00;99.90
33739;DHT22;20063;51.730;11.110;2023-02-02T05:44:14;5.10;99.90
33739;DHT22;20063;51.730;11.110;2023-02-02T05:46:40;5.10;99.90
33739;DHT22;20063;51.730;11.110;2023-02-02T05:49:06;5.10;99.90
33739;DHT22;20063;51.730;11.110;2023-02-02T05:51:38;5.10;99.90
33739;DHT22;20063;51.730;11.110;2023-02-02T05:54:06;5.10;99.90
33739;DHT22;20063;51.730;11.110;2023-02-02T05:56:31;5.10;99.90
33739;DHT22;20063;51.730;11.110;2023-02-02T05:58:57;5.10;99.90
33739;DHT22;20063;51.730;11.110;2023-02-02T06:01:24;5.10;99.90
33739;DHT22;20063;51.730;11.110;2023-02-02T06:03:50;5.10;99.90
33739;DHT22;20063;51.730;11.110;2023-02-02T06:06:15;5.00;99.90
33739;DHT22;20063;51.730;11.110;2023-02-02T06:08:41;5.00;99.90
33739;DHT22;20063;51.730;11.110;2023-02-02T06:11:14;5.00;99.90
33739;DHT22;20063;51.730;11.110;2023-02-02T06:13:43;5.00;99.90
33739;DHT22;20063;51.730;11.110;2023-02-02T06:16:08;5.00;99.90
33739;DHT22;20063;51.730;11.110;2023-02-02T06:18:35;4.90;99.90
33739;DHT22;20063;51.730;11.110;2023-02-02T06:21:02;5.00;99.90
33739;DHT22;20063;51.730;11.110;2023-02-02T06:23:30;5.00;99.90
33739;DHT22;20063;51.730;11.110;2023-02-02T06:25:56;4.90;99.90
33739;DHT22;20063;51.730;11.110;2023-02-02T06:28:21;4.90;99.90
33739;DHT22;20063;51.730;11.110;2023-02-02T06:30:47;4.90;99.90
33739;DHT22;20063;51.730;11.110;2023-02-02T06:33:12;4.90;99.90
33739;DHT22;20063;51.730;11.110;2023-02-02T06:35:38;4.90;99.90
33739;DHT22;20063;51.730;11.110;2023-02-02T06:38:04;4.90;99.90
33739;DHT22;20063;51.730;11.110;2023-02-02T06:40:29;4.90;99.90
33739;DHT22;20063;51.730;11.110;2023-02-02T06:43:00;4.90;99.90
33739;DHT22;20063;51.730;11.110;2023-02-02T06:45:29;4.90;99.90
33739;DHT22;20063;51.730;11.110;2023-02-02T06:47:59;4.90;99.90
33739;DHT22;20063;51.730;11.110;2023-02-02T06:50:28;4.90;99.90
33739;DHT22;20063;51.730;11.110;2023-02-02T06:52:53;4.90;99.90
33739;DHT22;20063;51.730;11.110;2023-02-02T06:55:19;4.90;99.90
33739;DHT22;20063;51.730;11.110;2023-02-02T06:57:45;4.90;99.90
33739;DHT22;20063;51.730;11.110;2023-02-02T07:00:12;4.90;99.90
33739;DHT22;20063;51.730;11.110;2023-02-02T07:02:38;5.00;99.90
33739;DHT22;20063;51.730;11.110;2023-02-02T07:05:04;5.00;99.90
33739;DHT22;20063;51.730;11.110;2023-02-02T07:07:33;5.00;99.90
33739;DHT22;20063;51.730;11.110;2023-02-02T07:09:59;5.00;99.90
33739;DHT22;20063;51.730;11.110;2023-02-02T07:12:25;5.00;99.90
33739;DHT22;20063;51.730;11.110;2023-02-02T07:14:52;5.00;99.90
33739;DHT22;20063;51.730;11.110;2023-02-02T07:17:18;5.00;99.90
33739;DHT22;20063;51.730;11.110;2023-02-02T07:19:44;5.10;99.90
33739;DHT22;20063;51.730;11.110;2023-02-02T07:22:09;5.00;99.90
33739;DHT22;20063;51.730;11.110;2023-02-02T07:24:35;5.00;99.90
33739;DHT22;20063;51.730;11.110;2023-02-02T07:27:03;5.10;99.90
33739;DHT22;20063;51.730;11.110;2023-02-02T07:29:28;5.10;99.90
33739;DHT22;20063;51.730;11.110;2023-02-02T07:31:54;5.10;99.90
33739;DHT22;20063;51.730;11.110;2023-02-02T07:34:19;5.10;99.90
33739;DHT22;20063;51.730;11.110;2023-02-02T07:36:45;5.10;99.90
33739;DHT22;20063;51.730;11.110;2023-02-02T07:39:11;5.10;99.90
33739;DHT22;20063;51.730;11.110;2023-02-02T07:41:36;5.10;99.90
33739;DHT22;20063;51.730;11.110;2023-02-02T07:44:03;5.00;99.90
33739;DHT22;20063;51.730;11.110;2023-02-02T07:46:29;5.10;99.90
33739;DHT22;20063;51.730;11.110;2023-02-02T07:48:56;5.10;99.90
33739;DHT22;20063;51.730;11.110;2023-02-02T07:51:22;5.10;99.90
33739;DHT22;20063;51.730;11.110;2023-02-02T07:53:50;5.10;99.90
33739;DHT22;20063;51.730;11.110;2023-02-02T07:56:21;5.10;99.90
33739;DHT22;20063;51.730;11.110;2023-02-02T07:58:49;5.10;99.90
33739;DHT22;20063;51.730;11.110;2023-02-02T08:01:15;5.10;99.90
33739;DHT22;20063;51.730;11.110;2023-02-02T08:03:45;5.10;99.90
33739;DHT22;20063;51.730;11.110;2023-02-02T08:06:23;5.20;99.90
33739;DHT22;20063;51.730;11.110;2023-02-02T08:08:49;5.20;99.90
33739;DHT22;20063;51.730;11.110;2023-02-02T08:11:18;5.20;99.90
33739;DHT22;20063;51.730;11.110;2023-02-02T08:13:48;5.20;99.90
33739;DHT22;20063;51.730;11.110;2023-02-02T08:16:14;5.20;99.90
33739;DHT22;20063;51.730;11.110;2023-02-02T08:18:39;5.20;99.90
33739;DHT22;20063;51.730;11.110;2023-02-02T08:21:07;5.30;99.90
33739;DHT22;20063;51.730;11.110;2023-02-02T08:23:34;5.30;99.90
33739;DHT22;20063;51.730;11.110;2023-02-02T08:26:06;5.30;99.90
33739;DHT22;20063;51.730;11.110;2023-02-02T08:28:32;5.30;99.90
33739;DHT22;20063;51.730;11.110;2023-02-02T08:31:13;5.40;99.90
33739;DHT22;20063;51.730;11.110;2023-02-02T08:33:39;5.40;99.90
33739;DHT22;20063;51.730;11.110;2023-02-02T08:36:11;5.40;99.90
33739;DHT22;20063;51.730;11.110;2023-02-02T08:38:38;5.40;99.90
33739;DHT22;20063;51.730;11.110;2023-02-02T08:41:05;5.40;99.90
33739;DHT22;20063;51.730;11.110;2023-02-02T08:43:31;5.40;99.90
33739;DHT22;20063;51.730;11.110;2023-02-02T08:45:56;5.40;99.90
33739;DHT22;20063;51.730;11.110;2023-02-02T08:48:22;5.40;99.90
33739;DHT22;20063;51.730;11.110;2023-02-02T08:50:52;5.40;99.90
33739;DHT22;20063;51.730;11.110;2023-02-02T08:53:18;5.40;99.90
33739;DHT22;20063;51.730;11.110;2023-02-02T08:55:44;5.40;99.90
33739;DHT22;20063;51.730;11.110;2023-02-02T08:58:09;5.40;99.90
33739;DHT22;20063;51.730;11.110;2023-02-02T09:00:35;5.40;99.90
33739;DHT22;20063;51.730;11.110;2023-02-02T09:03:00;5.40;99.90
33739;DHT22;20063;51.730;11.110;2023-02-02T09:05:26;5.40;99.90
33739;DHT22;20063;51.730;11.110;2023-02-02T09:07:51;5.40;99.90
33739;DHT22;20063;51.730;11.110;2023-02-02T09:10:17;5.40;99.90
33739;DHT22;20063;51.730;11.110;2023-02-02T09:12:43;5.40;99.90
33739;DHT22;20063;51.730;11.110;2023-02-02T09:15:09;5.40;99.90
33739;DHT22;20063;51.730;11.110;2023-02-02T09:17:34;5.40;99.90
33739;DHT22;20063;51.730;11.110;2023-02-02T09:20:02;5.40;99.90
33739;DHT22;20063;51.730;11.110;2023-02-02T09:22:29;5.50;99.90
33739;DHT22;20063;51.730;11.110;2023-02-02T09:24:54;5.50;99.90
33739;DHT22;20063;51.730;11.110;2023-02-02T09:27:20;5.40;99.90
33739;DHT22;20063;51.730;11.110;2023-02-02T09:29:46;5.50;99.90
33739;DHT22;20063;51.730;11.110;2023-02-02T09:32:13;5.50;99.90
33739;DHT22;20063;51.730;11.110;2023-02-02T09:34:38;5.50;99.90
33739;DHT22;20063;51.730;11.110;2023-02-02T09:37:04;5.50;99.90
33739;DHT22;20063;51.730;11.110;2023-02-02T09:39:29;5.50;99.90
33739;DHT22;20063;51.730;11.110;2023-02-02T09:55:52;5.70;99.90
33739;DHT22;20063;51.730;11.110;2023-02-02T09:58:26;5.70;99.90
33739;DHT22;20063;51.730;11.110;2023-02-02T10:01:13;5.70;99.90
33739;DHT22;20063;51.730;11.110;2023-02-02T10:03:44;5.70;99.90
33739;DHT22;20063;51.730;11.110;2023-02-02T10:06:37;5.70;99.90
33739;DHT22;20063;51.730;11.110;2023-02-02T10:14:31;5.80;99.90
33739;DHT22;20063;51.730;11.110;2023-02-02T10:17:06;5.80;99.90
33739;DHT22;20063;51.730;11.110;2023-02-02T10:19:38;5.80;99.90
33739;DHT22;20063;51.730;11.110;2023-02-02T10:22:17;5.80;99.90
33739;DHT22;20063;51.730;11.110;2023-02-02T10:24:44;5.80;99.90
33739;DHT22;20063;51.730;11.110;2023-02-02T10:27:30;5.90;99.90
33739;DHT22;20063;51.730;11.110;2023-02-02T10:30:00;5.80;99.90
33739;DHT22;20063;51.730;11.110;2023-02-02T10:32:34;5.90;99.90
33739;DHT22;20063;51.730;11.110;2023-02-02T10:46:01;5.90;99.90
33739;DHT22;20063;51.730;11.110;2023-02-02T10:48:34;5.90;99.90
33739;DHT22;20063;51.730;11.110;2023-02-02T10:51:11;6.00;99.90
33739;DHT22;20063;51.730;11.110;2023-02-02T10:53:48;5.90;99.90
33739;DHT22;20063;51.730;11.110;2023-02-02T10:56:18;5.90;99.90
33739;DHT22;20063;51.730;11.110;2023-02-02T10:59:05;5.90;99.90
33739;DHT22;20063;51.730;11.110;2023-02-02T11:01:31;6.00;99.90
33739;DHT22;20063;51.730;11.110;2023-02-02T11:03:57;6.00;99.90
33739;DHT22;20063;51.730;11.110;2023-02-02T11:06:41;5.90;99.90
33739;DHT22;20063;51.730;11.110;2023-02-02T11:09:29;6.00;99.90
33739;DHT22;20063;51.730;11.110;2023-02-02T11:12:02;6.00;99.90
33739;DHT22;20063;51.730;11.110;2023-02-02T11:14:50;6.00;99.90
33739;DHT22;20063;51.730;11.110;2023-02-02T11:17:21;6.00;99.90
33739;DHT22;20063;51.730;11.110;2023-02-02T11:19:48;6.10;99.90
33739;DHT22;20063;51.730;11.110;2023-02-02T11:22:33;6.10;99.90
33739;DHT22;20063;51.730;11.110;2023-02-02T11:25:03;6.10;99.90
33739;DHT22;20063;51.730;11.110;2023-02-02T11:27:38;6.20;99.90
33739;DHT22;20063;51.730;11.110;2023-02-02T11:30:19;6.20;99.90
33739;DHT22;20063;51.730;11.110;2023-02-02T11:32:46;6.20;99.90
33739;DHT22;20063;51.730;11.110;2023-02-02T11:35:18;6.20;99.90
33739;DHT22;20063;51.730;11.110;2023-02-02T11:38:14;6.20;99.90
33739;DHT22;20063;51.730;11.110;2023-02-02T11:40:45;6.20;99.90
33739;DHT22;20063;51.730;11.110;2023-02-02T11:46:27;6.20;99.90
33739;DHT22;20063;51.730;11.110;2023-02-02T11:49:03;6.20;99.90
33739;DHT22;20063;51.730;11.110;2023-02-02T11:51:32;6.20;99.90
33739;DHT22;20063;51.730;11.110;2023-02-02T11:54:55;6.20;99.90
33739;DHT22;20063;51.730;11.110;2023-02-02T11:57:17;6.20;99.90
33739;DHT22;20063;51.730;11.110;2023-02-02T11:59:44;6.10;99.90
33739;DHT22;20063;51.730;11.110;2023-02-02T12:02:24;6.10;99.90
33739;DHT22;20063;51.730;11.110;2023-02-02T12:05:11;6.10;99.90
33739;DHT22;20063;51.730;11.110;2023-02-02T12:07:39;6.10;99.90
33739;DHT22;20063;51.730;11.110;2023-02-02T12:15:46;6.10;99.90
33739;DHT22;20063;51.730;11.110;2023-02-02T12:21:59;6.20;99.90
33739;DHT22;20063;51.730;11.110;2023-02-02T12:24:33;6.30;99.90
33739;DHT22;20063;51.730;11.110;2023-02-02T12:27:34;6.30;99.90
33739;DHT22;20063;51.730;11.110;2023-02-02T12:30:26;6.30;99.90
33739;DHT22;20063;51.730;11.110;2023-02-02T12:33:31;6.30;99.90
33739;DHT22;20063;51.730;11.110;2023-02-02T12:39:22;6.30;99.90
33739;DHT22;20063;51.730;11.110;2023-02-02T12:46:59;6.50;99.90
33739;DHT22;20063;51.730;11.110;2023-02-02T12:49:45;6.40;99.90
33739;DHT22;20063;51.730;11.110;2023-02-02T12:52:15;6.40;99.90
33739;DHT22;20063;51.730;11.110;2023-02-02T13:00:02;6.40;99.90
33739;DHT22;20063;51.730;11.110;2023-02-02T13:11:01;6.30;99.90
33739;DHT22;20063;51.730;11.110;2023-02-02T13:13:32;6.20;99.90
33739;DHT22;20063;51.730;11.110;2023-02-02T13:16:08;6.30;99.90
33739;DHT22;20063;51.730;11.110;2023-02-02T13:18:50;6.30;99.90
33739;DHT22;20063;51.730;11.110;2023-02-02T13:21:20;6.30;99.90
33739;DHT22;20063;51.730;11.110;2023-02-02T13:23:50;6.20;99.90
33739;DHT22;20063;51.730;11.110;2023-02-02T13:26:28;6.20;99.90
33739;DHT22;20063;51.730;11.110;2023-02-02T13:35:16;6.20;99.90
33739;DHT22;20063;51.730;11.110;2023-02-02T13:37:50;6.20;99.90
33739;DHT22;20063;51.730;11.110;2023-02-02T13:48:53;6.30;99.90
33739;DHT22;20063;51.730;11.110;2023-02-02T13:51:29;6.30;99.90
33739;DHT22;20063;51.730;11.110;2023-02-02T13:57:17;6.30;99.90
33739;DHT22;20063;51.730;11.110;2023-02-02T13:59:50;6.20;99.90
33739;DHT22;20063;51.730;11.110;2023-02-02T14:02:22;6.20;99.90
33739;DHT22;20063;51.730;11.110;2023-02-02T14:04:54;6.20;99.90
33739;DHT22;20063;51.730;11.110;2023-02-02T14:07:36;6.20;99.90
33739;DHT22;20063;51.730;11.110;2023-02-02T14:10:05;6.10;99.90
33739;DHT22;20063;51.730;11.110;2023-02-02T14:12:32;6.10;99.90
33739;DHT22;20063;51.730;11.110;2023-02-02T14:14:58;6.10;99.90
33739;DHT22;20063;51.730;11.110;2023-02-02T14:19:53;6.00;99.90
33739;DHT22;20063;51.730;11.110;2023-02-02T14:22:52;6.00;99.90
33739;DHT22;20063;51.730;11.110;2023-02-02T14:28:12;6.00;99.90
33739;DHT22;20063;51.730;11.110;2023-02-02T14:34:26;6.00;99.90
33739;DHT22;20063;51.730;11.110;2023-02-02T14:51:25;5.90;99.90
33739;DHT22;20063;51.730;11.110;2023-02-02T14:53:54;6.00;99.90
33739;DHT22;20063;51.730;11.110;2023-02-02T14:56:21;6.00;99.90
33739;DHT22;20063;51.730;11.110;2023-02-02T14:59:03;6.00;99.90
33739;DHT22;20063;51.730;11.110;2023-02-02T15:01:34;6.00;99.90
33739;DHT22;20063;51.730;11.110;2023-02-02T15:06:46;6.00;99.90
33739;DHT22;20063;51.730;11.110;2023-02-02T15:25:41;5.90;99.90
33739;DHT22;20063;51.730;11.110;2023-02-02T15:31:15;5.80;99.90
33739;DHT22;20063;51.730;11.110;2023-02-02T15:33:48;5.70;99.90
33739;DHT22;20063;51.730;11.110;2023-02-02T15:36:27;5.70;99.90
33739;DHT22;20063;51.730;11.110;2023-02-02T15:38:58;5.60;99.90
33739;DHT22;20063;51.730;11.110;2023-02-02T15:43:50;5.60;99.90
33739;DHT22;20063;51.730;11.110;2023-02-02T15:46:20;5.60;99.90
33739;DHT22;20063;51.730;11.110;2023-02-02T15:49:13;5.60;99.90
33739;DHT22;20063;51.730;11.110;2023-02-02T15:51:43;5.50;99.90
33739;DHT22;20063;51.730;11.110;2023-02-02T15:54:25;5.50;99.90
33739;DHT22;20063;51.730;11.110;2023-02-02T15:56:54;5.50;99.90
33739;DHT22;20063;51.730;11.110;2023-02-02T15:59:26;5.40;99.90
33739;DHT22;20063;51.730;11.110;2023-02-02T16:04:39;5.40;99.90
33739;DHT22;20063;51.730;11.110;2023-02-02T16:07:09;5.40;99.90
33739;DHT22;20063;51.730;11.110;2023-02-02T16:09:37;5.40;99.90
33739;DHT22;20063;51.730;11.110;2023-02-02T16:12:15;5.40;99.90
33739;DHT22;20063;51.730;11.110;2023-02-02T16:14:45;5.30;99.90
33739;DHT22;20063;51.730;11.110;2023-02-02T16:19:49;5.30;99.90
33739;DHT22;20063;51.730;11.110;2023-02-02T16:22:20;5.30;99.90
33739;DHT22;20063;51.730;11.110;2023-02-02T16:24:53;5.30;99.90
33739;DHT22;20063;51.730;11.110;2023-02-02T16:27:25;5.30;99.90
33739;DHT22;20063;51.730;11.110;2023-02-02T16:29:51;5.20;99.90
33739;DHT22;20063;51.730;11.110;2023-02-02T16:34:54;5.20;99.90
33739;DHT22;20063;51.730;11.110;2023-02-02T16:37:23;5.20;99.90
33739;DHT22;20063;51.730;11.110;2023-02-02T16:39:52;5.20;99.90
33739;DHT22;20063;51.730;11.110;2023-02-02T16:42:26;5.10;99.90
33739;DHT22;20063;51.730;11.110;2023-02-02T16:44:56;5.10;99.90
33739;DHT22;20063;51.730;11.110;2023-02-02T16:52:58;5.00;99.90
33739;DHT22;20063;51.730;11.110;2023-02-02T16:55:28;5.10;99.90
33739;DHT22;20063;51.730;11.110;2023-02-02T16:57:55;5.00;99.90
33739;DHT22;20063;51.730;11.110;2023-02-02T17:00:25;5.00;99.90
33739;DHT22;20063;51.730;11.110;2023-02-02T17:03:03;5.00;99.90
33739;DHT22;20063;51.730;11.110;2023-02-02T17:05:46;5.10;99.90
33739;DHT22;20063;51.730;11.110;2023-02-02T17:08:12;5.10;99.90
33739;DHT22;20063;51.730;11.110;2023-02-02T17:10:41;5.10;99.90
33739;DHT22;20063;51.730;11.110;2023-02-02T17:15:58;5.00;99.90
33739;DHT22;20063;51.730;11.110;2023-02-02T17:18:24;5.10;99.90
33739;DHT22;20063;51.730;11.110;2023-02-02T17:20:52;5.10;99.90
33739;DHT22;20063;51.730;11.110;2023-02-02T17:23:24;5.10;99.90
33739;DHT22;20063;51.730;11.110;2023-02-02T17:25:51;5.00;99.90
33739;DHT22;20063;51.730;11.110;2023-02-02T17:28:19;5.00;99.90
33739;DHT22;20063;51.730;11.110;2023-02-02T17:30:51;4.90;99.90
33739;DHT22;20063;51.730;11.110;2023-02-02T17:33:18;4.90;99.90
33739;DHT22;20063;51.730;11.110;2023-02-02T17:35:45;4.90;99.90
33739;DHT22;20063;51.730;11.110;2023-02-02T17:38:11;4.80;99.90
33739;DHT22;20063;51.730;11.110;2023-02-02T17:40:37;4.80;99.90
33739;DHT22;20063;51.730;11.110;2023-02-02T17:43:03;4.80;99.90
33739;DHT22;20063;51.730;11.110;2023-02-02T17:45:33;4.70;99.90
33739;DHT22;20063;51.730;11.110;2023-02-02T17:47:59;4.70;99.90
33739;DHT22;20063;51.730;11.110;2023-02-02T17:50:26;4.70;99.90
33739;DHT22;20063;51.730;11.110;2023-02-02T17:52:53;4.70;99.90
33739;DHT22;20063;51.730;11.110;2023-02-02T17:55:31;4.70;99.90
33739;DHT22;20063;51.730;11.110;2023-02-02T17:57:57;4.70;99.90
33739;DHT22;20063;51.730;11.110;2023-02-02T18:00:24;4.70;99.90
33739;DHT22;20063;51.730;11.110;2023-02-02T18:02:58;4.80;99.90
33739;DHT22;20063;51.730;11.110;2023-02-02T18:05:24;4.70;99.90
33739;DHT22;20063;51.730;11.110;2023-02-02T18:07:50;4.80;99.90
33739;DHT22;20063;51.730;11.110;2023-02-02T18:10:16;4.80;99.90
33739;DHT22;20063;51.730;11.110;2023-02-02T18:12:43;4.80;99.90
33739;DHT22;20063;51.730;11.110;2023-02-02T18:15:12;4.80;99.90
33739;DHT22;20063;51.730;11.110;2023-02-02T18:17:39;4.80;99.90
33739;DHT22;20063;51.730;11.110;2023-02-02T18:20:05;4.80;99.90
33739;DHT22;20063;51.730;11.110;2023-02-02T18:22:31;4.80;99.90
33739;DHT22;20063;51.730;11.110;2023-02-02T18:24:57;4.80;99.90
33739;DHT22;20063;51.730;11.110;2023-02-02T18:27:23;4.80;99.90
33739;DHT22;20063;51.730;11.110;2023-02-02T18:29:49;4.80;99.90
33739;DHT22;20063;51.730;11.110;2023-02-02T18:32:15;4.80;99.90
33739;DHT22;20063;51.730;11.110;2023-02-02T18:34:42;4.80;99.90
33739;DHT22;20063;51.730;11.110;2023-02-02T18:37:08;4.70;99.90
33739;DHT22;20063;51.730;11.110;2023-02-02T18:39:34;4.80;99.90
33739;DHT22;20063;51.730;11.110;2023-02-02T18:41:59;4.80;99.90